sensor_id;sensor_type;location;lat;lon;timestamp;P1;durP1;ratioP1;P2;durP2;ratioP2
33864;SDS011;20159;51.072;13.526;2023-05-15T00:01:18;5.68;;;5.20;;
33864;SDS011;20159;51.072;13.526;2023-05-15T00:03:44;5.70;;;5.20;;
33864;SDS011;20159;51.072;13.526;2023-05-15T00:06:09;5.43;;;4.93;;
33864;SDS011;20159;51.072;13.526;2023-05-15T00:08:35;5.95;;;5.40;;
33864;SDS011;20159;51.072;13.526;2023-05-15T00:11:00;5.97;;;5.43;;
33864;SDS011;20159;51.072;13.526;2023-05-15T00:13:26;6.30;;;5.65;;
33864;SDS011;20159;51.072;13.526;2023-05-15T00:15:51;5.25;;;4.85;;
33864;SDS011;20159;51.072;13.526;2023-05-15T00:18:17;6.57;;;5.97;;
33864;SDS011;20159;51.072;13.526;2023-05-15T00:20:42;5.80;;;5.30;;
33864;SDS011;20159;51.072;13.526;2023-05-15T00:23:08;6.20;;;5.63;;
33864;SDS011;20159;51.072;13.526;2023-05-15T00:25:33;6.10;;;5.50;;
33864;SDS011;20159;51.072;13.526;2023-05-15T00:27:59;6.65;;;6.05;;
33864;SDS011;20159;51.072;13.526;2023-05-15T00:30:24;6.28;;;5.70;;
33864;SDS011;20159;51.072;13.526;2023-05-15T00:32:50;5.95;;;5.45;;
33864;SDS011;20159;51.072;13.526;2023-05-15T00:35:15;6.22;;;5.63;;
33864;SDS011;20159;51.072;13.526;2023-05-15T00:37:41;6.18;;;5.68;;
33864;SDS011;20159;51.072;13.526;2023-05-15T00:40:08;6.25;;;5.75;;
33864;SDS011;20159;51.072;13.526;2023-05-15T00:42:34;6.55;;;5.72;;
33864;SDS011;20159;51.072;13.526;2023-05-15T00:45:00;6.28;;;5.78;;
33864;SDS011;20159;51.072;13.526;2023-05-15T00:47:27;7.10;;;6.50;;
33864;SDS011;20159;51.072;13.526;2023-05-15T00:49:53;6.35;;;5.85;;
33864;SDS011;20159;51.072;13.526;2023-05-15T00:52:20;6.82;;;6.25;;
33864;SDS011;20159;51.072;13.526;2023-05-15T00:54:46;6.18;;;5.68;;
33864;SDS011;20159;51.072;13.526;2023-05-15T00:57:12;7.10;;;6.50;;
33864;SDS011;20159;51.072;13.526;2023-05-15T00:59:38;6.70;;;5.95;;
33864;SDS011;20159;51.072;13.526;2023-05-15T01:02:04;6.60;;;6.00;;
33864;SDS011;20159;51.072;13.526;2023-05-15T01:04:30;7.47;;;6.78;;
33864;SDS011;20159;51.072;13.526;2023-05-15T01:06:56;6.93;;;6.32;;
33864;SDS011;20159;51.072;13.526;2023-05-15T01:09:24;6.47;;;5.97;;
33864;SDS011;20159;51.072;13.526;2023-05-15T01:11:52;7.38;;;6.70;;
33864;SDS011;20159;51.072;13.526;2023-05-15T01:14:18;6.63;;;6.03;;
33864;SDS011;20159;51.072;13.526;2023-05-15T01:16:44;7.00;;;6.40;;
33864;SDS011;20159;51.072;13.526;2023-05-15T01:19:10;6.97;;;6.28;;
33864;SDS011;20159;51.072;13.526;2023-05-15T01:24:25;7.20;;;6.60;;
33864;SDS011;20159;51.072;13.526;2023-05-15T01:27:17;7.30;;;6.70;;
33864;SDS011;20159;51.072;13.526;2023-05-15T01:30:01;7.18;;;6.57;;
33864;SDS011;20159;51.072;13.526;2023-05-15T01:35:26;8.30;;;6.60;;
33864;SDS011;20159;51.072;13.526;2023-05-15T01:40:54;7.65;;;6.95;;
33864;SDS011;20159;51.072;13.526;2023-05-15T01:43:23;7.28;;;6.65;;
33864;SDS011;20159;51.072;13.526;2023-05-15T01:45:53;7.88;;;7.07;;
33864;SDS011;20159;51.072;13.526;2023-05-15T01:48:20;8.10;;;7.40;;
33864;SDS011;20159;51.072;13.526;2023-05-15T01:50:47;8.05;;;7.35;;
33864;SDS011;20159;51.072;13.526;2023-05-15T01:53:15;8.57;;;7.78;;
33864;SDS011;20159;51.072;13.526;2023-05-15T01:55:43;8.73;;;7.93;;
33864;SDS011;20159;51.072;13.526;2023-05-15T01:58:11;8.45;;;7.75;;
33864;SDS011;20159;51.072;13.526;2023-05-15T02:00:38;7.60;;;6.95;;
33864;SDS011;20159;51.072;13.526;2023-05-15T02:03:05;8.52;;;7.72;;
33864;SDS011;20159;51.072;13.526;2023-05-15T02:05:31;9.40;;;8.60;;
33864;SDS011;20159;51.072;13.526;2023-05-15T02:07:57;9.48;;;8.57;;
33864;SDS011;20159;51.072;13.526;2023-05-15T02:10:24;9.55;;;8.75;;
33864;SDS011;20159;51.072;13.526;2023-05-15T02:12:50;9.52;;;8.70;;
33864;SDS011;20159;51.072;13.526;2023-05-15T02:15:16;8.90;;;8.20;;
33864;SDS011;20159;51.072;13.526;2023-05-15T02:17:44;9.55;;;8.65;;
33864;SDS011;20159;51.072;13.526;2023-05-15T02:20:10;10.07;;;9.18;;
33864;SDS011;20159;51.072;13.526;2023-05-15T02:22:36;9.50;;;8.70;;
33864;SDS011;20159;51.072;13.526;2023-05-15T02:25:01;9.40;;;8.50;;
33864;SDS011;20159;51.072;13.526;2023-05-15T02:27:28;9.98;;;9.07;;
33864;SDS011;20159;51.072;13.526;2023-05-15T02:36:06;10.15;;;9.15;;
33864;SDS011;20159;51.072;13.526;2023-05-15T02:38:38;10.82;;;9.82;;
33864;SDS011;20159;51.072;13.526;2023-05-15T02:41:10;10.27;;;9.27;;
33864;SDS011;20159;51.072;13.526;2023-05-15T02:43:36;10.43;;;9.52;;
33864;SDS011;20159;51.072;13.526;2023-05-15T02:46:04;10.05;;;9.15;;
33864;SDS011;20159;51.072;13.526;2023-05-15T02:48:31;10.68;;;9.55;;
33864;SDS011;20159;51.072;13.526;2023-05-15T02:50:57;10.38;;;9.38;;
33864;SDS011;20159;51.072;13.526;2023-05-15T02:53:23;10.07;;;9.07;;
33864;SDS011;20159;51.072;13.526;2023-05-15T02:55:49;10.15;;;9.23;;
33864;SDS011;20159;51.072;13.526;2023-05-15T02:58:14;10.40;;;9.40;;
33864;SDS011;20159;51.072;13.526;2023-05-15T03:00:40;9.77;;;8.88;;
33864;SDS011;20159;51.072;13.526;2023-05-15T03:03:05;9.88;;;8.88;;
33864;SDS011;20159;51.072;13.526;2023-05-15T03:05:31;9.27;;;8.43;;
33864;SDS011;20159;51.072;13.526;2023-05-15T03:07:56;8.77;;;7.95;;
33864;SDS011;20159;51.072;13.526;2023-05-15T03:10:22;9.18;;;8.32;;
33864;SDS011;20159;51.072;13.526;2023-05-15T03:12:48;9.38;;;8.27;;
33864;SDS011;20159;51.072;13.526;2023-05-15T03:15:13;7.85;;;7.13;;
33864;SDS011;20159;51.072;13.526;2023-05-15T03:17:39;9.32;;;8.43;;
33864;SDS011;20159;51.072;13.526;2023-05-15T03:20:05;8.35;;;7.55;;
33864;SDS011;20159;51.072;13.526;2023-05-15T03:22:33;8.68;;;7.88;;
33864;SDS011;20159;51.072;13.526;2023-05-15T03:24:58;7.97;;;7.18;;
33864;SDS011;20159;51.072;13.526;2023-05-15T03:27:25;10.10;;;7.78;;
33864;SDS011;20159;51.072;13.526;2023-05-15T03:29:51;9.93;;;7.82;;
33864;SDS011;20159;51.072;13.526;2023-05-15T03:32:17;8.52;;;7.72;;
33864;SDS011;20159;51.072;13.526;2023-05-15T03:34:42;8.40;;;7.55;;
33864;SDS011;20159;51.072;13.526;2023-05-15T03:37:08;8.63;;;7.82;;
33864;SDS011;20159;51.072;13.526;2023-05-15T03:39:33;8.30;;;7.50;;
33864;SDS011;20159;51.072;13.526;2023-05-15T03:41:59;8.88;;;7.97;;
33864;SDS011;20159;51.072;13.526;2023-05-15T03:44:24;8.15;;;7.35;;
33864;SDS011;20159;51.072;13.526;2023-05-15T03:46:50;7.88;;;7.18;;
33864;SDS011;20159;51.072;13.526;2023-05-15T03:49:15;8.40;;;7.60;;
33864;SDS011;20159;51.072;13.526;2023-05-15T03:51:41;7.80;;;7.10;;
33864;SDS011;20159;51.072;13.526;2023-05-15T03:54:06;7.47;;;6.65;;
33864;SDS011;20159;51.072;13.526;2023-05-15T03:56:32;7.97;;;7.28;;
33864;SDS011;20159;51.072;13.526;2023-05-15T03:58:57;7.72;;;7.03;;
33864;SDS011;20159;51.072;13.526;2023-05-15T04:01:23;9.38;;;8.50;;
33864;SDS011;20159;51.072;13.526;2023-05-15T04:03:48;8.88;;;8.07;;
33864;SDS011;20159;51.072;13.526;2023-05-15T04:06:14;8.07;;;7.28;;
33864;SDS011;20159;51.072;13.526;2023-05-15T04:08:39;11.15;;;10.02;;
33864;SDS011;20159;51.072;13.526;2023-05-15T04:11:05;12.48;;;11.18;;
33864;SDS011;20159;51.072;13.526;2023-05-15T04:13:31;10.70;;;9.60;;
33864;SDS011;20159;51.072;13.526;2023-05-15T04:15:56;11.45;;;9.55;;
33864;SDS011;20159;51.072;13.526;2023-05-15T04:18:23;10.95;;;8.93;;
33864;SDS011;20159;51.072;13.526;2023-05-15T04:20:49;10.50;;;9.50;;
33864;SDS011;20159;51.072;13.526;2023-05-15T04:23:16;9.80;;;8.80;;
33864;SDS011;20159;51.072;13.526;2023-05-15T04:25:42;9.73;;;8.75;;
33864;SDS011;20159;51.072;13.526;2023-05-15T04:28:10;10.73;;;9.73;;
33864;SDS011;20159;51.072;13.526;2023-05-15T04:30:39;11.20;;;8.40;;
33864;SDS011;20159;51.072;13.526;2023-05-15T04:33:05;9.50;;;8.55;;
33864;SDS011;20159;51.072;13.526;2023-05-15T04:35:30;10.05;;;9.05;;
33864;SDS011;20159;51.072;13.526;2023-05-15T04:37:57;10.00;;;8.30;;
33864;SDS011;20159;51.072;13.526;2023-05-15T04:40:22;8.48;;;7.57;;
33864;SDS011;20159;51.072;13.526;2023-05-15T04:42:48;10.07;;;7.25;;
33864;SDS011;20159;51.072;13.526;2023-05-15T04:45:13;10.05;;;7.75;;
33864;SDS011;20159;51.072;13.526;2023-05-15T04:47:39;9.13;;;8.23;;
33864;SDS011;20159;51.072;13.526;2023-05-15T04:50:05;9.13;;;8.13;;
33864;SDS011;20159;51.072;13.526;2023-05-15T04:52:31;9.13;;;7.35;;
33864;SDS011;20159;51.072;13.526;2023-05-15T04:54:57;8.48;;;7.63;;
33864;SDS011;20159;51.072;13.526;2023-05-15T04:57:22;8.25;;;7.45;;
33864;SDS011;20159;51.072;13.526;2023-05-15T04:59:49;8.10;;;7.22;;
33864;SDS011;20159;51.072;13.526;2023-05-15T05:02:15;9.23;;;7.25;;
33864;SDS011;20159;51.072;13.526;2023-05-15T05:04:43;8.57;;;6.65;;
33864;SDS011;20159;51.072;13.526;2023-05-15T05:07:09;8.18;;;7.38;;
33864;SDS011;20159;51.072;13.526;2023-05-15T05:09:37;7.63;;;6.93;;
33864;SDS011;20159;51.072;13.526;2023-05-15T05:12:04;9.32;;;7.45;;
33864;SDS011;20159;51.072;13.526;2023-05-15T05:14:30;8.27;;;7.47;;
33864;SDS011;20159;51.072;13.526;2023-05-15T05:16:56;8.95;;;7.45;;
33864;SDS011;20159;51.072;13.526;2023-05-15T05:19:21;8.32;;;7.50;;
33864;SDS011;20159;51.072;13.526;2023-05-15T05:21:47;7.63;;;6.85;;
33864;SDS011;20159;51.072;13.526;2023-05-15T05:24:12;7.93;;;6.53;;
33864;SDS011;20159;51.072;13.526;2023-05-15T05:26:38;8.35;;;6.70;;
33864;SDS011;20159;51.072;13.526;2023-05-15T05:29:03;7.40;;;6.40;;
33864;SDS011;20159;51.072;13.526;2023-05-15T05:31:29;7.40;;;6.65;;
33864;SDS011;20159;51.072;13.526;2023-05-15T05:33:54;7.43;;;6.68;;
33864;SDS011;20159;51.072;13.526;2023-05-15T05:36:22;8.45;;;6.72;;
33864;SDS011;20159;51.072;13.526;2023-05-15T05:38:48;6.30;;;5.70;;
33864;SDS011;20159;51.072;13.526;2023-05-15T05:41:14;6.93;;;6.30;;
33864;SDS011;20159;51.072;13.526;2023-05-15T05:43:39;11.13;;;6.30;;
33864;SDS011;20159;51.072;13.526;2023-05-15T05:46:05;6.63;;;6.00;;
33864;SDS011;20159;51.072;13.526;2023-05-15T05:48:30;7.50;;;6.47;;
33864;SDS011;20159;51.072;13.526;2023-05-15T05:50:56;7.47;;;6.18;;
33864;SDS011;20159;51.072;13.526;2023-05-15T05:53:21;7.90;;;6.07;;
33864;SDS011;20159;51.072;13.526;2023-05-15T05:55:47;6.90;;;6.20;;
33864;SDS011;20159;51.072;13.526;2023-05-15T05:58:13;6.30;;;5.70;;
33864;SDS011;20159;51.072;13.526;2023-05-15T06:00:39;6.47;;;5.88;;
33864;SDS011;20159;51.072;13.526;2023-05-15T06:03:04;6.75;;;5.88;;
33864;SDS011;20159;51.072;13.526;2023-05-15T06:05:30;6.57;;;5.88;;
33864;SDS011;20159;51.072;13.526;2023-05-15T06:07:56;6.80;;;5.95;;
33864;SDS011;20159;51.072;13.526;2023-05-15T06:10:22;6.75;;;6.15;;
33864;SDS011;20159;51.072;13.526;2023-05-15T06:12:47;6.95;;;6.25;;
33864;SDS011;20159;51.072;13.526;2023-05-15T06:15:13;6.85;;;6.15;;
33864;SDS011;20159;51.072;13.526;2023-05-15T06:17:39;7.95;;;7.10;;
33864;SDS011;20159;51.072;13.526;2023-05-15T06:20:05;6.95;;;6.32;;
33864;SDS011;20159;51.072;13.526;2023-05-15T06:22:34;7.22;;;6.00;;
33864;SDS011;20159;51.072;13.526;2023-05-15T06:25:01;7.25;;;6.55;;
33864;SDS011;20159;51.072;13.526;2023-05-15T06:27:28;8.43;;;6.45;;
33864;SDS011;20159;51.072;13.526;2023-05-15T06:29:53;6.65;;;5.97;;
33864;SDS011;20159;51.072;13.526;2023-05-15T06:32:19;6.20;;;5.60;;
33864;SDS011;20159;51.072;13.526;2023-05-15T06:34:44;7.35;;;6.65;;
33864;SDS011;20159;51.072;13.526;2023-05-15T06:37:10;7.20;;;6.30;;
33864;SDS011;20159;51.072;13.526;2023-05-15T06:39:36;7.30;;;6.28;;
33864;SDS011;20159;51.072;13.526;2023-05-15T06:42:01;6.82;;;6.22;;
33864;SDS011;20159;51.072;13.526;2023-05-15T06:44:28;6.47;;;5.85;;
33864;SDS011;20159;51.072;13.526;2023-05-15T06:46:54;6.88;;;6.18;;
33864;SDS011;20159;51.072;13.526;2023-05-15T06:49:20;7.30;;;6.57;;
33864;SDS011;20159;51.072;13.526;2023-05-15T06:51:46;6.85;;;6.15;;
33864;SDS011;20159;51.072;13.526;2023-05-15T06:54:11;7.78;;;6.57;;
33864;SDS011;20159;51.072;13.526;2023-05-15T06:56:37;6.95;;;6.25;;
33864;SDS011;20159;51.072;13.526;2023-05-15T06:59:02;6.47;;;5.85;;
33864;SDS011;20159;51.072;13.526;2023-05-15T07:01:29;6.82;;;6.22;;
33864;SDS011;20159;51.072;13.526;2023-05-15T07:03:55;7.55;;;6.45;;
33864;SDS011;20159;51.072;13.526;2023-05-15T07:06:21;6.93;;;6.32;;
33864;SDS011;20159;51.072;13.526;2023-05-15T07:08:47;7.00;;;6.30;;
33864;SDS011;20159;51.072;13.526;2023-05-15T07:11:12;6.63;;;6.03;;
33864;SDS011;20159;51.072;13.526;2023-05-15T07:13:38;6.88;;;6.28;;
33864;SDS011;20159;51.072;13.526;2023-05-15T07:16:03;7.00;;;6.38;;
33864;SDS011;20159;51.072;13.526;2023-05-15T07:18:29;6.70;;;6.10;;
33864;SDS011;20159;51.072;13.526;2023-05-15T07:20:55;7.18;;;6.45;;
33864;SDS011;20159;51.072;13.526;2023-05-15T07:23:20;8.48;;;5.70;;
33864;SDS011;20159;51.072;13.526;2023-05-15T07:25:47;7.70;;;5.57;;
33864;SDS011;20159;51.072;13.526;2023-05-15T07:28:12;6.75;;;6.15;;
33864;SDS011;20159;51.072;13.526;2023-05-15T07:30:38;7.45;;;5.88;;
33864;SDS011;20159;51.072;13.526;2023-05-15T07:33:03;7.22;;;5.95;;
33864;SDS011;20159;51.072;13.526;2023-05-15T07:35:29;6.55;;;6.00;;
33864;SDS011;20159;51.072;13.526;2023-05-15T07:37:54;7.22;;;6.53;;
33864;SDS011;20159;51.072;13.526;2023-05-15T07:40:20;7.32;;;6.63;;
33864;SDS011;20159;51.072;13.526;2023-05-15T07:42:45;6.97;;;6.20;;
33864;SDS011;20159;51.072;13.526;2023-05-15T07:45:11;6.90;;;6.00;;
33864;SDS011;20159;51.072;13.526;2023-05-15T07:47:36;6.88;;;6.13;;
33864;SDS011;20159;51.072;13.526;2023-05-15T07:50:02;7.13;;;5.22;;
33864;SDS011;20159;51.072;13.526;2023-05-15T07:52:28;7.07;;;6.30;;
33864;SDS011;20159;51.072;13.526;2023-05-15T07:54:53;6.53;;;5.65;;
33864;SDS011;20159;51.072;13.526;2023-05-15T07:57:19;6.43;;;5.82;;
33864;SDS011;20159;51.072;13.526;2023-05-15T07:59:44;5.95;;;5.38;;
33864;SDS011;20159;51.072;13.526;2023-05-15T08:02:10;6.72;;;6.05;;
33864;SDS011;20159;51.072;13.526;2023-05-15T08:04:35;6.43;;;5.82;;
33864;SDS011;20159;51.072;13.526;2023-05-15T08:07:01;6.22;;;5.63;;
33864;SDS011;20159;51.072;13.526;2023-05-15T08:09:26;5.80;;;5.30;;
33864;SDS011;20159;51.072;13.526;2023-05-15T08:11:54;6.15;;;5.65;;
33864;SDS011;20159;51.072;13.526;2023-05-15T08:14:20;7.95;;;6.07;;
33864;SDS011;20159;51.072;13.526;2023-05-15T08:16:45;6.50;;;5.70;;
33864;SDS011;20159;51.072;13.526;2023-05-15T08:19:10;5.95;;;5.45;;
33864;SDS011;20159;51.072;13.526;2023-05-15T08:21:36;5.90;;;5.30;;
33864;SDS011;20159;51.072;13.526;2023-05-15T08:24:02;7.35;;;6.05;;
33864;SDS011;20159;51.072;13.526;2023-05-15T08:26:27;9.88;;;5.70;;
33864;SDS011;20159;51.072;13.526;2023-05-15T08:28:53;6.45;;;5.85;;
33864;SDS011;20159;51.072;13.526;2023-05-15T08:31:18;6.53;;;5.63;;
33864;SDS011;20159;51.072;13.526;2023-05-15T08:33:44;7.78;;;5.82;;
33864;SDS011;20159;51.072;13.526;2023-05-15T08:36:09;6.78;;;6.15;;
33864;SDS011;20159;51.072;13.526;2023-05-15T08:38:35;6.43;;;5.82;;
33864;SDS011;20159;51.072;13.526;2023-05-15T08:41:01;6.22;;;5.63;;
33864;SDS011;20159;51.072;13.526;2023-05-15T08:43:32;6.32;;;5.75;;
33864;SDS011;20159;51.072;13.526;2023-05-15T08:46:00;6.47;;;5.88;;
33864;SDS011;20159;51.072;13.526;2023-05-15T08:48:26;6.60;;;6.00;;
33864;SDS011;20159;51.072;13.526;2023-05-15T08:50:54;6.57;;;5.97;;
33864;SDS011;20159;51.072;13.526;2023-05-15T08:53:21;6.50;;;5.90;;
33864;SDS011;20159;51.072;13.526;2023-05-15T08:55:47;6.95;;;6.25;;
33864;SDS011;20159;51.072;13.526;2023-05-15T08:58:13;6.78;;;6.10;;
33864;SDS011;20159;51.072;13.526;2023-05-15T09:00:40;6.63;;;6.03;;
33864;SDS011;20159;51.072;13.526;2023-05-15T09:03:12;7.25;;;6.25;;
33864;SDS011;20159;51.072;13.526;2023-05-15T09:05:38;6.70;;;6.10;;
33864;SDS011;20159;51.072;13.526;2023-05-15T09:08:04;7.45;;;6.55;;
33864;SDS011;20159;51.072;13.526;2023-05-15T09:10:32;6.70;;;5.60;;
33864;SDS011;20159;51.072;13.526;2023-05-15T09:12:58;6.57;;;5.97;;
33864;SDS011;20159;51.072;13.526;2023-05-15T09:15:25;6.32;;;5.70;;
33864;SDS011;20159;51.072;13.526;2023-05-15T09:17:52;12.48;;;5.75;;
33864;SDS011;20159;51.072;13.526;2023-05-15T09:20:34;5.68;;;5.18;;
33864;SDS011;20159;51.072;13.526;2023-05-15T09:23:02;6.35;;;5.85;;
33864;SDS011;20159;51.072;13.526;2023-05-15T09:25:39;6.05;;;5.45;;
33864;SDS011;20159;51.072;13.526;2023-05-15T09:28:07;5.95;;;5.45;;
33864;SDS011;20159;51.072;13.526;2023-05-15T09:30:37;6.45;;;5.85;;
33864;SDS011;20159;51.072;13.526;2023-05-15T09:33:05;6.20;;;5.60;;
33864;SDS011;20159;51.072;13.526;2023-05-15T09:35:35;6.90;;;5.97;;
33864;SDS011;20159;51.072;13.526;2023-05-15T09:38:02;6.20;;;5.68;;
33864;SDS011;20159;51.072;13.526;2023-05-15T09:40:32;6.85;;;6.15;;
33864;SDS011;20159;51.072;13.526;2023-05-15T09:42:57;7.68;;;6.00;;
33864;SDS011;20159;51.072;13.526;2023-05-15T09:45:23;5.80;;;5.30;;
33864;SDS011;20159;51.072;13.526;2023-05-15T09:47:50;7.55;;;5.45;;
33864;SDS011;20159;51.072;13.526;2023-05-15T09:50:23;5.75;;;5.25;;
33864;SDS011;20159;51.072;13.526;2023-05-15T09:52:57;5.88;;;5.35;;
33864;SDS011;20159;51.072;13.526;2023-05-15T09:55:23;6.45;;;5.82;;
33864;SDS011;20159;51.072;13.526;2023-05-15T09:58:02;5.47;;;4.97;;
33864;SDS011;20159;51.072;13.526;2023-05-15T10:00:32;6.57;;;5.07;;
33864;SDS011;20159;51.072;13.526;2023-05-15T10:03:02;5.45;;;4.82;;
33864;SDS011;20159;51.072;13.526;2023-05-15T10:05:29;5.80;;;5.15;;
33864;SDS011;20159;51.072;13.526;2023-05-15T10:07:55;6.82;;;5.80;;
33864;SDS011;20159;51.072;13.526;2023-05-15T10:10:22;5.78;;;4.93;;
33864;SDS011;20159;51.072;13.526;2023-05-15T10:12:49;5.47;;;4.85;;
33864;SDS011;20159;51.072;13.526;2023-05-15T10:15:16;6.38;;;5.60;;
33864;SDS011;20159;51.072;13.526;2023-05-15T10:17:42;7.70;;;5.65;;
33864;SDS011;20159;51.072;13.526;2023-05-15T10:20:11;6.72;;;5.00;;
33864;SDS011;20159;51.072;13.526;2023-05-15T10:22:39;6.53;;;5.28;;
33864;SDS011;20159;51.072;13.526;2023-05-15T10:27:57;7.05;;;6.32;;
33864;SDS011;20159;51.072;13.526;2023-05-15T10:30:23;9.25;;;6.15;;
33864;SDS011;20159;51.072;13.526;2023-05-15T10:32:50;6.70;;;6.10;;
33864;SDS011;20159;51.072;13.526;2023-05-15T10:35:16;6.70;;;6.00;;
33864;SDS011;20159;51.072;13.526;2023-05-15T10:37:43;6.80;;;6.10;;
33864;SDS011;20159;51.072;13.526;2023-05-15T10:40:11;6.88;;;6.18;;
33864;SDS011;20159;51.072;13.526;2023-05-15T10:42:38;7.20;;;6.50;;
33864;SDS011;20159;51.072;13.526;2023-05-15T10:45:06;7.47;;;6.78;;
33864;SDS011;20159;51.072;13.526;2023-05-15T10:47:32;7.65;;;5.93;;
33864;SDS011;20159;51.072;13.526;2023-05-15T10:49:58;7.20;;;6.50;;
33864;SDS011;20159;51.072;13.526;2023-05-15T10:52:24;6.28;;;5.75;;
33864;SDS011;20159;51.072;13.526;2023-05-15T10:54:53;5.80;;;5.20;;
33864;SDS011;20159;51.072;13.526;2023-05-15T10:57:20;5.95;;;5.43;;
33864;SDS011;20159;51.072;13.526;2023-05-15T10:59:46;9.75;;;5.85;;
33864;SDS011;20159;51.072;13.526;2023-05-15T11:02:19;6.72;;;6.03;;
33864;SDS011;20159;51.072;13.526;2023-05-15T11:04:57;6.32;;;5.72;;
33864;SDS011;20159;51.072;13.526;2023-05-15T11:07:23;6.90;;;6.18;;
33864;SDS011;20159;51.072;13.526;2023-05-15T11:09:50;5.30;;;4.20;;
33864;SDS011;20159;51.072;13.526;2023-05-15T11:12:16;4.85;;;4.35;;
33864;SDS011;20159;51.072;13.526;2023-05-15T11:14:43;4.40;;;4.00;;
33864;SDS011;20159;51.072;13.526;2023-05-15T11:17:28;6.18;;;4.53;;
33864;SDS011;20159;51.072;13.526;2023-05-15T11:19:57;5.75;;;4.80;;
33864;SDS011;20159;51.072;13.526;2023-05-15T11:22:28;4.78;;;4.30;;
33864;SDS011;20159;51.072;13.526;2023-05-15T11:25:05;6.43;;;4.50;;
33864;SDS011;20159;51.072;13.526;2023-05-15T11:30:15;4.75;;;3.90;;
33864;SDS011;20159;51.072;13.526;2023-05-15T11:35:33;4.40;;;4.00;;
33864;SDS011;20159;51.072;13.526;2023-05-15T11:40:43;8.50;;;3.97;;
33864;SDS011;20159;51.072;13.526;2023-05-15T11:48:34;5.80;;;4.20;;
33864;SDS011;20159;51.072;13.526;2023-05-15T11:51:03;4.50;;;3.85;;
33864;SDS011;20159;51.072;13.526;2023-05-15T11:53:30;5.25;;;4.15;;
33864;SDS011;20159;51.072;13.526;2023-05-15T11:55:56;4.47;;;4.07;;
33864;SDS011;20159;51.072;13.526;2023-05-15T11:58:23;4.13;;;3.72;;
33864;SDS011;20159;51.072;13.526;2023-05-15T12:00:50;4.95;;;4.03;;
33864;SDS011;20159;51.072;13.526;2023-05-15T12:03:17;5.10;;;4.20;;
33864;SDS011;20159;51.072;13.526;2023-05-15T12:05:48;5.43;;;4.35;;
33864;SDS011;20159;51.072;13.526;2023-05-15T12:08:14;4.60;;;4.20;;
33864;SDS011;20159;51.072;13.526;2023-05-15T12:10:42;5.15;;;4.22;;
33864;SDS011;20159;51.072;13.526;2023-05-15T12:13:12;7.22;;;4.20;;
33864;SDS011;20159;51.072;13.526;2023-05-15T12:15:40;4.35;;;3.92;;
33864;SDS011;20159;51.072;13.526;2023-05-15T12:18:07;4.50;;;4.10;;
33864;SDS011;20159;51.072;13.526;2023-05-15T12:20:34;5.07;;;4.03;;
33864;SDS011;20159;51.072;13.526;2023-05-15T12:23:03;4.32;;;3.85;;
33864;SDS011;20159;51.072;13.526;2023-05-15T12:25:34;4.15;;;3.53;;
33864;SDS011;20159;51.072;13.526;2023-05-15T12:28:01;5.10;;;3.70;;
33864;SDS011;20159;51.072;13.526;2023-05-15T12:30:28;4.75;;;3.70;;
33864;SDS011;20159;51.072;13.526;2023-05-15T12:33:05;3.60;;;3.30;;
33864;SDS011;20159;51.072;13.526;2023-05-15T12:35:31;4.15;;;3.28;;
33864;SDS011;20159;51.072;13.526;2023-05-15T12:37:58;3.88;;;3.30;;
33864;SDS011;20159;51.072;13.526;2023-05-15T12:40:26;5.80;;;3.13;;
33864;SDS011;20159;51.072;13.526;2023-05-15T12:42:52;2.97;;;2.70;;
33864;SDS011;20159;51.072;13.526;2023-05-15T12:45:19;3.42;;;2.97;;
33864;SDS011;20159;51.072;13.526;2023-05-15T12:47:46;4.15;;;3.05;;
33864;SDS011;20159;51.072;13.526;2023-05-15T12:50:13;3.38;;;2.83;;
33864;SDS011;20159;51.072;13.526;2023-05-15T12:52:44;3.17;;;2.72;;
33864;SDS011;20159;51.072;13.526;2023-05-15T12:57:54;2.67;;;2.47;;
33864;SDS011;20159;51.072;13.526;2023-05-15T13:00:21;3.08;;;2.50;;
33864;SDS011;20159;51.072;13.526;2023-05-15T13:02:48;3.30;;;2.83;;
33864;SDS011;20159;51.072;13.526;2023-05-15T13:05:16;3.58;;;2.60;;
33864;SDS011;20159;51.072;13.526;2023-05-15T13:07:42;5.63;;;2.30;;
33864;SDS011;20159;51.072;13.526;2023-05-15T13:10:08;2.80;;;2.50;;
33864;SDS011;20159;51.072;13.526;2023-05-15T13:12:35;4.65;;;3.08;;
33864;SDS011;20159;51.072;13.526;2023-05-15T13:15:02;2.90;;;2.53;;
33864;SDS011;20159;51.072;13.526;2023-05-15T13:17:29;3.38;;;2.45;;
33864;SDS011;20159;51.072;13.526;2023-05-15T13:19:54;2.35;;;2.15;;
33864;SDS011;20159;51.072;13.526;2023-05-15T13:22:20;3.63;;;2.88;;
33864;SDS011;20159;51.072;13.526;2023-05-15T13:24:45;3.05;;;2.40;;
33864;SDS011;20159;51.072;13.526;2023-05-15T13:27:11;2.85;;;2.50;;
33864;SDS011;20159;51.072;13.526;2023-05-15T13:29:36;2.83;;;2.33;;
33864;SDS011;20159;51.072;13.526;2023-05-15T13:32:02;2.70;;;2.40;;
33864;SDS011;20159;51.072;13.526;2023-05-15T13:34:27;4.55;;;2.65;;
33864;SDS011;20159;51.072;13.526;2023-05-15T13:36:53;3.40;;;2.45;;
33864;SDS011;20159;51.072;13.526;2023-05-15T13:39:18;3.30;;;2.63;;
33864;SDS011;20159;51.072;13.526;2023-05-15T13:41:44;3.90;;;2.50;;
33864;SDS011;20159;51.072;13.526;2023-05-15T13:44:09;2.83;;;2.40;;
33864;SDS011;20159;51.072;13.526;2023-05-15T13:46:34;3.40;;;2.45;;
33864;SDS011;20159;51.072;13.526;2023-05-15T13:49:00;3.05;;;2.38;;
33864;SDS011;20159;51.072;13.526;2023-05-15T13:51:26;2.72;;;2.20;;
33864;SDS011;20159;51.072;13.526;2023-05-15T13:53:51;4.00;;;2.65;;
33864;SDS011;20159;51.072;13.526;2023-05-15T13:56:16;2.65;;;2.45;;
33864;SDS011;20159;51.072;13.526;2023-05-15T13:58:42;2.55;;;2.35;;
33864;SDS011;20159;51.072;13.526;2023-05-15T14:01:07;3.08;;;2.35;;
33864;SDS011;20159;51.072;13.526;2023-05-15T14:03:33;3.67;;;2.60;;
33864;SDS011;20159;51.072;13.526;2023-05-15T14:05:59;3.78;;;2.40;;
33864;SDS011;20159;51.072;13.526;2023-05-15T14:08:24;5.10;;;2.42;;
33864;SDS011;20159;51.072;13.526;2023-05-15T14:10:50;3.17;;;2.53;;
33864;SDS011;20159;51.072;13.526;2023-05-15T14:13:16;3.03;;;2.63;;
33864;SDS011;20159;51.072;13.526;2023-05-15T14:15:42;3.28;;;2.47;;
33864;SDS011;20159;51.072;13.526;2023-05-15T14:18:07;4.03;;;2.80;;
33864;SDS011;20159;51.072;13.526;2023-05-15T14:20:33;6.10;;;2.58;;
33864;SDS011;20159;51.072;13.526;2023-05-15T14:22:58;3.60;;;3.05;;
33864;SDS011;20159;51.072;13.526;2023-05-15T14:25:24;5.53;;;3.53;;
33864;SDS011;20159;51.072;13.526;2023-05-15T14:27:50;6.78;;;3.65;;
33864;SDS011;20159;51.072;13.526;2023-05-15T14:30:15;4.60;;;3.40;;
33864;SDS011;20159;51.072;13.526;2023-05-15T14:32:40;4.13;;;3.13;;
33864;SDS011;20159;51.072;13.526;2023-05-15T14:35:06;3.70;;;2.97;;
33864;SDS011;20159;51.072;13.526;2023-05-15T14:37:31;3.92;;;3.20;;
33864;SDS011;20159;51.072;13.526;2023-05-15T14:39:57;6.00;;;3.55;;
33864;SDS011;20159;51.072;13.526;2023-05-15T14:42:22;3.55;;;3.25;;
33864;SDS011;20159;51.072;13.526;2023-05-15T14:44:49;4.90;;;3.60;;
33864;SDS011;20159;51.072;13.526;2023-05-15T14:47:15;4.15;;;3.58;;
33864;SDS011;20159;51.072;13.526;2023-05-15T14:49:40;3.80;;;3.05;;
33864;SDS011;20159;51.072;13.526;2023-05-15T14:52:08;3.97;;;3.35;;
33864;SDS011;20159;51.072;13.526;2023-05-15T14:54:34;6.22;;;3.38;;
33864;SDS011;20159;51.072;13.526;2023-05-15T14:57:00;3.55;;;3.25;;
33864;SDS011;20159;51.072;13.526;2023-05-15T14:59:26;4.75;;;3.45;;
33864;SDS011;20159;51.072;13.526;2023-05-15T15:01:52;3.50;;;3.20;;
33864;SDS011;20159;51.072;13.526;2023-05-15T15:04:18;6.70;;;3.65;;